Terminal Aerodrome Forecast
Issued by NWS

Home | Current Version | Previous Version | Text Only | Print | Product List | Glossary On
Versions: 1 2 3 4 5 6 7 8 9 10 11 12
657
FTUS44 KSJT 190520
TAFJCT
TAF
KJCT 190520Z 1906/2006 18008KT P6SM SCT250
     FM191200 16005KT P6SM BKN025
     FM191600 17010KT P6SM BKN250=

USA.gov is the U.S. government's official web portal to all federal, state and local government web resources and services.